createdAt,value
2019-04-26T00:01:38.595Z,39.40
2019-04-26T00:04:07.710Z,38.80
2019-04-26T00:06:37.277Z,38.72
2019-04-26T00:09:27.247Z,39.18
2019-04-26T00:12:03.083Z,39.16
2019-04-26T00:14:42.110Z,38.51
2019-04-26T00:17:12.171Z,39.02
2019-04-26T00:19:39.960Z,38.91
2019-04-26T00:22:08.974Z,38.39
2019-04-26T00:24:37.773Z,39.24
2019-04-26T00:27:06.212Z,38.53
2019-04-26T00:29:34.624Z,38.24
2019-04-26T00:32:03.116Z,38.10
2019-04-26T00:34:31.556Z,38.23
2019-04-26T00:36:59.971Z,37.89
2019-04-26T00:39:28.596Z,38.29
2019-04-26T00:41:57.765Z,38.96
2019-04-26T00:44:26.357Z,38.51
2019-04-26T00:46:57.004Z,38.02
2019-04-26T00:49:26.273Z,38.54
2019-04-26T00:51:55.235Z,38.07
2019-04-26T00:54:25.593Z,38.01
2019-04-26T00:56:54.154Z,37.88
2019-04-26T00:59:23.273Z,37.33
2019-04-26T01:01:53.407Z,39.62
2019-04-26T01:04:22.953Z,39.32
2019-04-26T01:06:53.042Z,39.66
2019-04-26T01:09:21.916Z,38.82
2019-04-26T01:11:50.327Z,37.52
2019-04-26T01:14:19.884Z,38.36
2019-04-26T01:16:48.480Z,38.35
2019-04-26T01:19:18.649Z,38.57
2019-04-26T01:21:52.730Z,39.13
2019-04-26T01:24:24.001Z,39.46
2019-04-26T01:26:55.483Z,39.54
2019-04-26T01:29:25.978Z,39.80
2019-04-26T01:32:00.136Z,39.70
2019-04-26T01:34:29.098Z,41.73
2019-04-26T01:36:59.066Z,40.67
2019-04-26T01:39:27.980Z,42.49
2019-04-26T01:42:14.288Z,40.67
2019-04-26T01:44:53.078Z,40.32
2019-04-26T01:47:22.266Z,40.39
2019-04-26T01:49:51.172Z,41.43
2019-04-26T01:52:19.586Z,41.66
2019-04-26T01:54:48.296Z,41.97
2019-04-26T01:57:16.790Z,42.03
2019-04-26T01:59:49.977Z,42.48
2019-04-26T02:02:35.172Z,43.62
2019-04-26T02:05:07.325Z,43.27
2019-04-26T02:07:39.098Z,43.10
2019-04-26T02:10:16.480Z,43.54
2019-04-26T02:12:47.522Z,43.44
2019-04-26T02:15:18.380Z,43.55
2019-04-26T02:17:49.280Z,43.21
2019-04-26T02:20:37.062Z,43.40
2019-04-26T02:23:07.117Z,44.44
2019-04-26T02:25:35.552Z,46.03
2019-04-26T02:28:04.098Z,45.07
2019-04-26T02:30:34.664Z,45.88
2019-04-26T02:33:02.251Z,45.22
2019-04-26T02:35:32.158Z,42.92
2019-04-26T02:38:01.749Z,45.96
2019-04-26T02:40:31.689Z,45.79
2019-04-26T02:42:59.823Z,46.04
2019-04-26T02:45:44.523Z,43.24
2019-04-26T02:48:30.823Z,45.58
2019-04-26T02:51:02.570Z,46.33
2019-04-26T02:53:45.345Z,48.13
2019-04-26T02:56:30.300Z,47.00
2019-04-26T02:59:13.138Z,47.52
2019-04-26T03:01:42.233Z,47.89
2019-04-26T03:04:10.695Z,47.04
2019-04-26T03:06:42.952Z,47.57
2019-04-26T03:09:14.154Z,48.03
2019-04-26T03:11:48.471Z,47.38
2019-04-26T03:14:23.539Z,46.99
2019-04-26T03:16:56.660Z,46.98
2019-04-26T03:19:39.625Z,47.53
2019-04-26T03:22:17.189Z,48.04
2019-04-26T03:24:48.819Z,47.89
2019-04-26T03:27:33.556Z,47.92
2019-04-26T03:30:22.299Z,48.07
2019-04-26T03:33:04.290Z,47.96
2019-04-26T03:36:01.398Z,47.31
2019-04-26T03:38:51.953Z,47.23
2019-04-26T03:41:25.579Z,47.75
2019-04-26T03:43:57.037Z,45.38
2019-04-26T03:46:45.134Z,47.66
2019-04-26T03:49:29.166Z,47.91
2019-04-26T03:52:26.064Z,48.54
2019-04-26T03:54:57.617Z,48.41
2019-04-26T03:57:38.348Z,49.04
2019-04-26T04:00:10.873Z,49.27
2019-04-26T04:02:58.651Z,49.24
2019-04-26T04:05:37.266Z,49.61
2019-04-26T04:08:07.733Z,50.13
2019-04-26T04:10:44.124Z,50.27
2019-04-26T04:13:40.550Z,50.73
2019-04-26T04:16:20.154Z,50.60
2019-04-26T04:18:54.056Z,50.44
2019-04-26T04:21:29.111Z,51.13
2019-04-26T04:24:00.590Z,51.27
2019-04-26T04:26:32.071Z,51.70
2019-04-26T04:29:20.087Z,52.02
2019-04-26T04:31:57.092Z,53.68
2019-04-26T04:34:37.769Z,54.40
2019-04-26T04:37:08.545Z,55.56
2019-04-26T04:39:49.919Z,56.10
2019-04-26T04:42:41.406Z,56.55
2019-04-26T04:45:29.454Z,57.38
2019-04-26T04:48:18.709Z,57.54
2019-04-26T04:51:17.537Z,57.75
2019-04-26T04:53:49.780Z,58.25
2019-04-26T04:56:27.047Z,58.84
2019-04-26T04:59:22.732Z,58.85
2019-04-26T05:02:04.079Z,58.35
2019-04-26T05:04:38.644Z,58.95
2019-04-26T05:07:20.423Z,59.40
2019-04-26T05:10:10.071Z,59.27
2019-04-26T05:12:56.421Z,59.67
2019-04-26T05:16:03.058Z,60.38
2019-04-26T05:18:44.134Z,61.09
2019-04-26T05:21:35.944Z,61.32
2019-04-26T05:24:13.950Z,62.01
2019-04-26T05:27:29.000Z,61.42
2019-04-26T05:30:22.943Z,62.70
2019-04-26T05:33:00.370Z,62.21
2019-04-26T05:36:06.950Z,63.70
2019-04-26T05:38:41.307Z,63.63
2019-04-26T05:41:53.536Z,63.84
2019-04-26T05:45:12.537Z,63.47
2019-04-26T05:48:06.192Z,64.35
2019-04-26T05:51:15.506Z,63.97
2019-04-26T05:54:30.746Z,64.20
2019-04-26T05:57:12.342Z,64.74
2019-04-26T05:59:55.095Z,64.66
2019-04-26T06:02:33.652Z,63.94
2019-04-26T06:05:18.634Z,64.17
2019-04-26T06:08:32.229Z,64.43
2019-04-26T06:11:05.334Z,64.93
2019-04-26T06:13:52.177Z,64.81
2019-04-26T06:16:40.068Z,65.14
2019-04-26T06:19:42.679Z,63.99
2019-04-26T06:22:26.157Z,64.29
2019-04-26T06:25:14.224Z,64.64
2019-04-26T06:28:00.745Z,64.79
2019-04-26T06:30:45.017Z,63.69
2019-04-26T06:33:10.879Z,63.75
2019-04-26T06:35:43.488Z,64.22
2019-04-26T06:38:43.978Z,64.30
2019-04-26T06:41:38.870Z,63.57
2019-04-26T06:44:23.191Z,63.37
2019-04-26T06:47:04.650Z,64.15
2019-04-26T06:50:01.590Z,63.79
2019-04-26T06:52:33.080Z,64.02
2019-04-26T06:55:18.337Z,63.95
2019-04-26T06:58:14.235Z,63.88
2019-04-26T07:01:01.889Z,64.35
2019-04-26T07:03:45.200Z,64.59
2019-04-26T07:06:16.680Z,63.76
2019-04-26T07:08:57.556Z,63.30
2019-04-26T07:11:54.618Z,63.41
2019-04-26T07:14:59.285Z,63.03
2019-04-26T07:17:48.453Z,62.74
2019-04-26T07:20:23.135Z,61.69
2019-04-26T07:23:05.698Z,60.50
2019-04-26T07:26:13.789Z,60.14
2019-04-26T07:28:51.019Z,58.66
2019-04-26T07:31:31.431Z,57.62
2019-04-26T07:34:16.580Z,56.97
2019-04-26T07:37:11.398Z,56.83
2019-04-26T07:40:11.597Z,56.38
2019-04-26T07:43:01.698Z,56.41
2019-04-26T07:45:37.445Z,56.19
2019-04-26T07:48:34.683Z,56.05
2019-04-26T07:51:25.547Z,55.75
2019-04-26T07:53:59.875Z,55.09
2019-04-26T07:56:31.349Z,54.78
2019-04-26T07:59:34.073Z,54.59
2019-04-26T08:02:15.932Z,53.96
2019-04-26T08:04:47.367Z,53.79
2019-04-26T08:07:25.023Z,53.19
2019-04-26T08:10:07.969Z,53.41
2019-04-26T08:12:39.374Z,53.22
2019-04-26T08:15:16.241Z,52.82
2019-04-26T08:17:57.936Z,51.85
2019-04-26T08:20:48.366Z,51.87
2019-04-26T08:23:38.047Z,52.01
2019-04-26T08:25:50.195Z,51.26
2019-04-26T08:28:21.599Z,51.95
2019-04-26T08:30:54.286Z,52.22
2019-04-26T08:33:30.086Z,51.21
2019-04-26T08:36:00.489Z,50.38
2019-04-26T08:38:28.652Z,49.66
2019-04-26T08:41:00.476Z,49.20
2019-04-26T08:43:43.483Z,50.13
2019-04-26T08:46:18.788Z,50.14
2019-04-26T08:48:50.936Z,50.22
2019-04-26T08:51:22.117Z,50.51
2019-04-26T08:53:52.913Z,50.85
2019-04-26T08:56:24.400Z,50.81
2019-04-26T08:58:56.583Z,49.57
2019-04-26T09:01:46.734Z,49.45
2019-04-26T09:04:20.510Z,49.21
2019-04-26T09:06:55.683Z,49.48
2019-04-26T09:09:27.547Z,49.86
2019-04-26T09:11:59.758Z,50.12
2019-04-26T09:14:30.528Z,49.90
2019-04-26T09:16:58.943Z,50.41
2019-04-26T09:19:30.571Z,49.85
2019-04-26T09:22:12.201Z,49.64
2019-04-26T09:24:47.307Z,47.96
2019-04-26T09:27:21.078Z,47.42
2019-04-26T09:30:04.883Z,47.42
2019-04-26T09:32:35.915Z,46.87
2019-04-26T09:35:04.675Z,45.98
2019-04-26T09:37:33.040Z,44.32
2019-04-26T09:40:10.210Z,44.53
2019-04-26T09:42:41.029Z,43.86
2019-04-26T09:45:11.704Z,43.51
2019-04-26T09:48:00.007Z,43.06
2019-04-26T09:50:32.827Z,43.59
2019-04-26T09:53:01.343Z,43.66
2019-04-26T09:55:35.519Z,43.14
2019-04-26T09:57:59.947Z,42.95
2019-04-26T10:00:30.242Z,41.89
2019-04-26T10:02:58.840Z,41.33
2019-04-26T10:05:27.323Z,41.01
2019-04-26T10:07:55.860Z,41.60
2019-04-26T10:10:26.466Z,41.45
2019-04-26T10:12:59.228Z,41.60
2019-04-26T10:15:31.768Z,41.42
2019-04-26T10:18:01.263Z,41.58
2019-04-26T10:20:29.625Z,42.17
2019-04-26T10:22:58.055Z,42.89
2019-04-26T10:25:26.476Z,43.08
2019-04-26T10:27:55.037Z,42.87
2019-04-26T10:30:23.535Z,42.61
2019-04-26T10:32:51.949Z,43.04
2019-04-26T10:35:21.712Z,44.24
2019-04-26T10:37:52.597Z,44.85
2019-04-26T10:40:20.896Z,45.35
2019-04-26T10:42:49.345Z,45.75
2019-04-26T10:45:18.572Z,46.52
2019-04-26T10:47:47.012Z,46.02
2019-04-26T10:50:15.976Z,46.46
2019-04-26T10:52:54.261Z,46.63
2019-04-26T10:55:23.279Z,47.01
2019-04-26T10:57:56.632Z,46.75
2019-04-26T11:00:32.472Z,47.35
2019-04-26T11:03:04.456Z,47.76
2019-04-26T11:05:31.153Z,47.23
2019-04-26T11:07:59.734Z,47.11
2019-04-26T11:10:29.954Z,47.52
2019-04-26T11:12:58.442Z,48.47
2019-04-26T11:15:29.045Z,48.96
2019-04-26T11:17:56.910Z,49.38
2019-04-26T11:20:25.287Z,48.15
2019-04-26T11:22:53.841Z,49.39
2019-04-26T11:25:24.611Z,49.61
2019-04-26T11:27:52.680Z,49.81
2019-04-26T11:30:21.455Z,49.88
2019-04-26T11:32:50.249Z,50.11
2019-04-26T11:35:18.724Z,49.84
2019-04-26T11:37:50.702Z,50.30
2019-04-26T11:40:17.833Z,49.95
2019-04-26T11:42:47.334Z,50.34
2019-04-26T11:45:17.878Z,50.32
2019-04-26T11:47:55.879Z,50.61
2019-04-26T11:50:17.859Z,50.71
2019-04-26T11:52:46.816Z,50.60
2019-04-26T11:55:15.694Z,50.47
2019-04-26T11:57:47.446Z,49.63
2019-04-26T12:00:32.053Z,49.75
2019-04-26T12:03:00.480Z,48.86
2019-04-26T12:05:30.573Z,49.43
2019-04-26T12:08:06.131Z,49.45
2019-04-26T12:10:34.562Z,47.78
2019-04-26T12:13:05.852Z,48.01
2019-04-26T12:15:33.371Z,48.16
2019-04-26T12:18:05.510Z,48.55
2019-04-26T12:20:32.420Z,49.08
2019-04-26T12:23:00.839Z,46.50
2019-04-26T12:25:31.098Z,46.74
2019-04-26T12:28:02.010Z,45.40
2019-04-26T12:30:29.024Z,45.00
2019-04-26T12:32:57.437Z,43.58
2019-04-26T12:35:25.902Z,42.11
2019-04-26T12:37:54.969Z,40.77
2019-04-26T12:40:24.225Z,40.74
2019-04-26T12:42:52.981Z,41.51
2019-04-26T12:45:28.954Z,40.31
2019-04-26T12:48:07.869Z,40.31
2019-04-26T12:50:37.620Z,41.46
2019-04-26T12:53:04.484Z,40.22
2019-04-26T12:55:32.848Z,39.29
2019-04-26T12:58:01.270Z,39.61
2019-04-26T13:00:37.498Z,38.80
2019-04-26T13:03:04.993Z,38.95
2019-04-26T13:05:33.414Z,39.17
2019-04-26T13:08:02.362Z,39.08
2019-04-26T13:10:50.646Z,40.82
2019-04-26T13:13:20.720Z,41.39
2019-04-26T13:16:08.306Z,41.50
2019-04-26T13:18:36.781Z,41.83
2019-04-26T13:21:05.562Z,42.57
2019-04-26T13:23:33.997Z,43.76
2019-04-26T13:26:02.421Z,44.18
2019-04-26T13:28:30.859Z,43.60
2019-04-26T13:31:02.035Z,44.13
2019-04-26T13:33:29.447Z,44.60
2019-04-26T13:36:05.165Z,45.83
2019-04-26T13:38:28.072Z,47.21
2019-04-26T13:40:59.821Z,46.55
2019-04-26T13:43:28.538Z,46.73
2019-04-26T13:46:01.109Z,47.46
2019-04-26T13:48:33.865Z,48.01
2019-04-26T13:51:07.415Z,47.65
2019-04-26T13:53:35.841Z,47.69
2019-04-26T13:56:04.441Z,48.46
2019-04-26T13:58:32.939Z,48.34
2019-04-26T14:01:02.439Z,49.19
2019-04-26T14:03:31.590Z,49.54
2019-04-26T14:06:01.014Z,49.84
2019-04-26T14:08:29.433Z,49.88
2019-04-26T14:10:57.857Z,49.89
2019-04-26T14:13:26.293Z,49.63
2019-04-26T14:15:54.725Z,49.29
2019-04-26T14:18:23.170Z,49.11
2019-04-26T14:20:54.914Z,49.16
2019-04-26T14:23:23.388Z,48.93
2019-04-26T14:25:55.595Z,49.09
2019-04-26T14:28:25.233Z,49.77
2019-04-26T14:30:53.685Z,49.92
2019-04-26T14:33:22.123Z,50.20
2019-04-26T14:35:52.122Z,50.14
2019-04-26T14:38:27.802Z,50.63
2019-04-26T14:41:03.237Z,51.10
2019-04-26T14:43:22.280Z,50.84
2019-04-26T14:45:56.045Z,50.61
2019-04-26T14:48:35.122Z,50.94
2019-04-26T14:50:53.246Z,50.71
2019-04-26T14:53:22.110Z,49.89
2019-04-26T14:55:51.199Z,50.08
2019-04-26T14:58:23.864Z,50.38
2019-04-26T15:00:58.426Z,50.43
2019-04-26T15:03:45.151Z,50.13
2019-04-26T15:06:16.843Z,49.56
2019-04-26T15:08:48.678Z,49.98
2019-04-26T15:11:15.794Z,50.38
2019-04-26T15:13:44.246Z,50.76
2019-04-26T15:16:14.237Z,51.34
2019-04-26T15:18:43.213Z,51.19
2019-04-26T15:21:12.883Z,50.52
2019-04-26T15:23:41.456Z,50.26
2019-04-26T15:26:09.885Z,50.05
2019-04-26T15:28:38.400Z,50.12
2019-04-26T15:31:06.855Z,50.03
2019-04-26T15:33:36.069Z,49.82
2019-04-26T15:36:06.455Z,49.52
2019-04-26T15:38:41.402Z,48.91
2019-04-26T15:41:11.730Z,48.19
2019-04-26T15:43:38.802Z,48.33
2019-04-26T15:46:12.506Z,47.99
2019-04-26T15:48:42.926Z,48.47
2019-04-26T15:51:12.582Z,49.21
2019-04-26T15:53:44.878Z,49.14
2019-04-26T15:56:14.631Z,49.48
2019-04-26T15:58:45.846Z,49.04
2019-04-26T16:01:13.421Z,48.34
2019-04-26T16:03:44.593Z,47.42
2019-04-26T16:06:12.635Z,48.21
2019-04-26T16:08:43.647Z,48.76
2019-04-26T16:11:12.393Z,48.83
2019-04-26T16:13:45.251Z,49.41
2019-04-26T16:16:12.507Z,50.13
2019-04-26T16:18:40.632Z,49.56
2019-04-26T16:21:13.516Z,51.18
2019-04-26T16:23:43.202Z,50.94
2019-04-26T16:26:12.943Z,51.44
2019-04-26T16:28:44.382Z,51.34
2019-04-26T16:31:28.228Z,51.53
2019-04-26T16:33:58.324Z,50.45
2019-04-26T16:36:26.829Z,49.90
2019-04-26T16:38:57.949Z,49.84
2019-04-26T16:41:27.152Z,49.81
2019-04-26T16:43:55.536Z,49.88
2019-04-26T16:46:24.873Z,50.03
2019-04-26T16:48:55.439Z,50.01
2019-04-26T16:51:23.543Z,50.11
2019-04-26T16:54:06.292Z,50.52
2019-04-26T16:56:26.518Z,50.50
2019-04-26T16:58:54.770Z,50.70
2019-04-26T17:01:23.427Z,49.94
2019-04-26T17:03:53.477Z,51.44
2019-04-26T17:06:23.324Z,51.33
2019-04-26T17:09:00.808Z,51.91
2019-04-26T17:11:22.957Z,52.16
2019-04-26T17:13:56.626Z,52.66
2019-04-26T17:16:22.438Z,52.32
2019-04-26T17:18:51.273Z,50.41
2019-04-26T17:21:25.363Z,54.15
2019-04-26T17:24:12.211Z,54.94
2019-04-26T17:26:42.835Z,55.55
2019-04-26T17:29:10.763Z,56.45
2019-04-26T17:31:39.318Z,55.30
2019-04-26T17:34:07.779Z,58.00
2019-04-26T17:36:36.212Z,58.44
2019-04-26T17:39:11.025Z,59.76
2019-04-26T17:41:44.994Z,60.49
2019-04-26T17:44:13.120Z,60.84
2019-04-26T17:46:40.698Z,61.31
2019-04-26T17:49:10.992Z,62.16
2019-04-26T17:51:44.131Z,62.68
2019-04-26T17:54:26.497Z,63.75
2019-04-26T17:56:40.205Z,58.87
2019-04-26T17:59:13.721Z,64.10
2019-04-26T18:01:45.286Z,65.36
2019-04-26T18:04:11.263Z,65.93
2019-04-26T18:06:40.401Z,65.83
2019-04-26T18:09:13.227Z,66.38
2019-04-26T18:11:41.208Z,66.62
2019-04-26T18:14:20.865Z,67.36
2019-04-26T18:16:42.733Z,67.74
2019-04-26T18:19:42.083Z,67.41
2019-04-26T18:22:34.998Z,67.83
2019-04-26T18:25:04.359Z,68.34
2019-04-26T18:27:35.728Z,63.15
2019-04-26T18:30:06.679Z,68.83
2019-04-26T18:32:33.933Z,68.97
2019-04-26T18:35:00.719Z,69.91
2019-04-26T18:37:29.199Z,70.54
2019-04-26T18:40:02.076Z,70.44
2019-04-26T18:42:28.076Z,70.65
2019-04-26T18:44:56.519Z,71.38
2019-04-26T18:47:28.310Z,70.76
2019-04-26T18:49:58.501Z,70.63
2019-04-26T18:52:28.842Z,70.29
2019-04-26T18:55:05.800Z,69.74
2019-04-26T18:57:35.002Z,70.29
2019-04-26T19:00:06.794Z,70.24
2019-04-26T19:02:35.400Z,69.91
2019-04-26T19:05:05.513Z,70.16
2019-04-26T19:07:34.009Z,70.02
2019-04-26T19:10:05.348Z,71.06
2019-04-26T19:12:33.163Z,70.40
2019-04-26T19:15:07.551Z,70.78
2019-04-26T19:17:37.778Z,71.17
2019-04-26T19:20:26.176Z,71.10
2019-04-26T19:22:56.257Z,71.55
2019-04-26T19:25:25.442Z,71.92
2019-04-26T19:27:58.890Z,72.18
2019-04-26T19:30:25.387Z,72.10
2019-04-26T19:32:54.162Z,72.11
2019-04-26T19:35:22.809Z,72.67
2019-04-26T19:37:51.791Z,72.61
2019-04-26T19:40:20.370Z,73.04
2019-04-26T19:42:55.420Z,73.33
2019-04-26T19:46:25.319Z,73.52
2019-04-26T19:49:01.396Z,73.50
2019-04-26T19:51:34.416Z,73.34
2019-04-26T19:54:07.004Z,72.95
2019-04-26T19:56:37.108Z,73.20
2019-04-26T19:59:05.817Z,74.09
2019-04-26T20:01:34.252Z,73.83
2019-04-26T20:04:02.721Z,74.50
2019-04-26T20:06:32.248Z,74.05
2019-04-26T20:09:01.961Z,74.70
2019-04-26T20:11:31.672Z,75.01
2019-04-26T20:14:01.153Z,74.84
2019-04-26T20:16:30.286Z,74.98
2019-04-26T20:18:58.713Z,74.73
2019-04-26T20:21:27.156Z,74.94
2019-04-26T20:23:55.751Z,75.07
2019-04-26T20:26:24.294Z,75.34
2019-04-26T20:28:52.746Z,75.28
2019-04-26T20:31:37.514Z,75.57
2019-04-26T20:34:05.549Z,75.69
2019-04-26T20:36:40.660Z,75.59
2019-04-26T20:39:07.189Z,75.81
2019-04-26T20:41:35.666Z,75.49
2019-04-26T20:44:09.481Z,75.29
2019-04-26T20:46:37.738Z,75.74
2019-04-26T20:49:07.949Z,75.55
2019-04-26T20:51:34.968Z,75.28
2019-04-26T20:54:03.914Z,75.72
2019-04-26T20:56:32.460Z,75.29
2019-04-26T20:59:01.557Z,75.64
2019-04-26T21:01:32.008Z,75.75
2019-04-26T21:03:59.783Z,75.83
2019-04-26T21:06:29.237Z,71.82
2019-04-26T21:08:59.079Z,75.37
2019-04-26T21:11:30.330Z,75.66
2019-04-26T21:14:01.884Z,75.46
2019-04-26T21:16:32.366Z,76.25
2019-04-26T21:19:01.841Z,75.96
2019-04-26T21:21:32.107Z,76.20
2019-04-26T21:24:03.670Z,76.07
2019-04-26T21:26:52.769Z,76.48
2019-04-26T21:29:32.508Z,76.35
2019-04-26T21:32:02.609Z,76.98
2019-04-26T21:34:33.293Z,76.57
2019-04-26T21:37:22.153Z,76.91
2019-04-26T21:39:53.263Z,76.70
2019-04-26T21:42:25.523Z,76.47
2019-04-26T21:44:53.221Z,76.75
2019-04-26T21:47:23.174Z,76.73
2019-04-26T21:49:58.487Z,76.68
2019-04-26T21:52:27.591Z,76.35
2019-04-26T21:54:53.241Z,76.48
2019-04-26T21:57:27.843Z,76.62
2019-04-26T21:59:54.010Z,76.33
2019-04-26T22:02:25.236Z,76.28
2019-04-26T22:04:53.209Z,76.32
2019-04-26T22:07:21.737Z,72.94
2019-04-26T22:09:57.862Z,76.04
2019-04-26T22:12:27.233Z,76.35
2019-04-26T22:15:00.904Z,76.61
2019-04-26T22:17:36.529Z,76.69
2019-04-26T22:20:21.415Z,76.71
2019-04-26T22:23:03.660Z,76.67
2019-04-26T22:25:33.742Z,76.79
2019-04-26T22:28:03.358Z,76.76
2019-04-26T22:30:33.162Z,76.92
2019-04-26T22:33:03.065Z,76.71
2019-04-26T22:35:31.741Z,76.92
2019-04-26T22:38:00.304Z,76.87
2019-04-26T22:40:28.730Z,76.98
2019-04-26T22:43:05.303Z,77.22
2019-04-26T22:45:44.205Z,77.37
2019-04-26T22:48:19.417Z,77.89
2019-04-26T22:50:43.926Z,77.79
2019-04-26T22:53:12.531Z,77.73
2019-04-26T22:55:41.048Z,77.46
2019-04-26T22:58:09.541Z,77.74
2019-04-26T23:00:39.153Z,77.70
2019-04-26T23:03:07.590Z,77.42
2019-04-26T23:05:39.138Z,76.96
2019-04-26T23:08:06.473Z,76.78
2019-04-26T23:10:36.553Z,76.76
2019-04-26T23:13:15.351Z,76.95
2019-04-26T23:15:54.209Z,76.80
2019-04-26T23:18:43.769Z,77.09
2019-04-26T23:21:15.029Z,77.29
2019-04-26T23:23:44.276Z,76.97
2019-04-26T23:26:14.388Z,76.95
2019-04-26T23:28:43.383Z,77.03
2019-04-26T23:31:13.388Z,77.09
2019-04-26T23:33:42.907Z,77.24
2019-04-26T23:36:10.946Z,77.15
2019-04-26T23:38:39.485Z,75.16
2019-04-26T23:41:07.919Z,77.09
2019-04-26T23:43:36.416Z,76.94
2019-04-26T23:46:04.942Z,77.54
2019-04-26T23:48:33.380Z,77.65
2019-04-26T23:51:05.019Z,77.30
2019-04-26T23:53:33.647Z,77.30
2019-04-26T23:56:01.604Z,77.15
2019-04-26T23:58:30.037Z,74.44
